Time;durP1;ratioP1;P1;durP2;ratioP2;P2;SDS_P1;SDS_P2;PMS_P1;PMS_P2;Temp;Humidity;BMP_temperature;BMP_pressure;BME280_temperature;BME280_humidity;BME280_pressure;Samples;Min_cycle;Max_cycle;Signal;HPM_P1;HPM_P2
2023/10/24 00:00:23;;;;;;;65.40;28.98;;;;;;;;;;4964428;28;20540;-62
2023/10/24 00:02:49;;;;;;;67.20;30.40;;;;;;;;;;4965447;28;20027;-62
2023/10/24 00:05:14;;;;;;;58.70;29.13;;;;;;;;;;4966043;28;20039;-63
2023/10/24 00:07:40;;;;;;;59.38;29.08;;;;;;;;;;4964298;28;20066;-62
2023/10/24 00:10:06;;;;;;;64.85;29.02;;;;;;;;;;4965813;28;20053;-62
2023/10/24 00:12:31;;;;;;;63.70;30.42;;;;;;;;;;4964688;28;20054;-63
2023/10/24 00:14:57;;;;;;;61.33;30.35;;;;;;;;;;4963932;28;20034;-63
2023/10/24 00:17:23;;;;;;;54.50;29.05;;;;;;;;;;4966106;28;20424;-63
2023/10/24 00:19:49;;;;;;;54.13;26.67;;;;;;;;;;4965073;28;20038;-63
2023/10/24 00:22:14;;;;;;;50.55;25.95;;;;;;;;;;4964578;28;20027;-63
2023/10/24 00:24:40;;;;;;;61.53;27.52;;;;;;;;;;4970147;28;20030;-63
2023/10/24 00:29:40;;;;;;;49.67;23.60;;;;;;;;;;5011552;23;20071;-62
2023/10/24 00:32:06;;;;;;;53.38;25.30;;;;;;;;;;4975056;28;20026;-63
2023/10/24 00:34:31;;;;;;;49.40;25.30;;;;;;;;;;4974793;28;20034;-63
2023/10/24 00:36:57;;;;;;;40.58;22.95;;;;;;;;;;4975032;28;20476;-63
2023/10/24 00:39:22;;;;;;;40.40;22.73;;;;;;;;;;4974841;28;20030;-62
2023/10/24 00:41:47;;;;;;;39.90;22.45;;;;;;;;;;4975036;28;20035;-63
2023/10/24 00:44:13;;;;;;;48.28;22.05;;;;;;;;;;4974694;28;20034;-64
2023/10/24 00:46:42;;;;;;;41.42;20.27;;;;;;;;;;4974834;28;20030;-63
2023/10/24 00:49:08;;;;;;;45.92;21.10;;;;;;;;;;4974827;28;20043;-64
2023/10/24 00:51:34;;;;;;;45.92;22.45;;;;;;;;;;4974787;28;20023;-62
2023/10/24 00:54:01;;;;;;;37.05;19.70;;;;;;;;;;4974853;28;20387;-63
2023/10/24 00:56:29;;;;;;;42.17;22.33;;;;;;;;;;4974478;28;20045;-62
2023/10/24 00:58:55;;;;;;;43.17;22.73;;;;;;;;;;4974608;28;20031;-63
2023/10/24 01:01:22;;;;;;;42.88;20.58;;;;;;;;;;4974571;28;20044;-64
2023/10/24 01:03:49;;;;;;;33.40;18.23;;;;;;;;;;4974708;28;20027;-64
2023/10/24 01:06:16;;;;;;;34.30;18.15;;;;;;;;;;4974537;28;20026;-63
2023/10/24 01:08:42;;;;;;;33.75;18.33;;;;;;;;;;4974491;28;20038;-63
2023/10/24 01:11:08;;;;;;;33.17;17.13;;;;;;;;;;4974375;28;20019;-63
2023/10/24 01:13:34;;;;;;;34.20;18.35;;;;;;;;;;4974357;28;20494;-63
2023/10/24 01:16:00;;;;;;;31.25;18.23;;;;;;;;;;4974469;28;20395;-63
2023/10/24 01:18:25;;;;;;;28.88;17.85;;;;;;;;;;4974276;28;20031;-63
2023/10/24 01:20:51;;;;;;;30.48;17.65;;;;;;;;;;4974368;28;20026;-63
2023/10/24 01:23:17;;;;;;;30.58;18.58;;;;;;;;;;4974078;28;20066;-64
2023/10/24 01:25:43;;;;;;;29.85;17.20;;;;;;;;;;4973908;28;20439;-64
2023/10/24 01:28:09;;;;;;;31.60;18.50;;;;;;;;;;4973787;28;20043;-63
2023/10/24 01:30:35;;;;;;;51.72;21.30;;;;;;;;;;4974130;28;20026;-63
2023/10/24 01:33:01;;;;;;;40.95;21.75;;;;;;;;;;4972937;28;20031;-63
2023/10/24 01:35:26;;;;;;;54.92;24.38;;;;;;;;;;4973978;28;20058;-63
2023/10/24 01:37:52;;;;;;;56.90;24.98;;;;;;;;;;4974287;28;20058;-64
2023/10/24 01:40:17;;;;;;;63.97;27.13;;;;;;;;;;4973943;28;20034;-64
2023/10/24 01:42:43;;;;;;;59.20;26.70;;;;;;;;;;4974041;28;20026;-63
2023/10/24 01:45:09;;;;;;;57.90;26.30;;;;;;;;;;4974109;28;20038;-63
2023/10/24 01:47:34;;;;;;;48.90;23.33;;;;;;;;;;4973926;28;20042;-63
2023/10/24 01:50:00;;;;;;;45.67;21.48;;;;;;;;;;4973985;28;20039;-63
2023/10/24 01:52:25;;;;;;;37.63;21.95;;;;;;;;;;4974013;28;20388;-63
2023/10/24 01:54:50;;;;;;;34.70;19.63;;;;;;;;;;4973809;28;20090;-63
2023/10/24 01:57:17;;;;;;;33.65;19.73;;;;;;;;;;4974003;28;20114;-63
2023/10/24 01:59:43;;;;;;;33.00;18.30;;;;;;;;;;4973918;28;20033;-62
2023/10/24 02:02:08;;;;;;;30.92;18.30;;;;;;;;;;4973700;28;20019;-63
2023/10/24 02:04:34;;;;;;;34.58;19.73;;;;;;;;;;4973795;28;20023;-62
2023/10/24 02:06:59;;;;;;;36.80;21.02;;;;;;;;;;4973886;28;20384;-62
2023/10/24 02:09:27;;;;;;;36.00;20.00;;;;;;;;;;4973662;28;20034;-62
2023/10/24 02:11:53;;;;;;;39.47;19.55;;;;;;;;;;4973790;28;20101;-62
2023/10/24 02:14:18;;;;;;;34.15;20.05;;;;;;;;;;4973794;28;20114;-63
2023/10/24 02:16:44;;;;;;;38.42;21.13;;;;;;;;;;4973824;28;20074;-62
2023/10/24 02:19:09;;;;;;;36.03;20.63;;;;;;;;;;4973815;28;20065;-63
2023/10/24 02:21:34;;;;;;;31.83;19.25;;;;;;;;;;4973743;28;20046;-62
2023/10/24 02:24:00;;;;;;;30.27;18.63;;;;;;;;;;4973386;28;20089;-62
2023/10/24 02:26:25;;;;;;;29.90;18.48;;;;;;;;;;4973716;28;20031;-63
2023/10/24 02:28:51;;;;;;;33.90;19.23;;;;;;;;;;4981553;28;20046;-62
2023/10/24 02:31:16;;;;;;;33.38;20.90;;;;;;;;;;4993112;28;20030;-62
2023/10/24 02:33:41;;;;;;;32.58;20.13;;;;;;;;;;4993188;28;20022;-62
2023/10/24 02:36:08;;;;;;;37.83;20.90;;;;;;;;;;4994234;28;20487;-63
2023/10/24 02:38:34;;;;;;;38.03;22.77;;;;;;;;;;4996506;28;20398;-63
2023/10/24 02:40:59;;;;;;;43.20;23.08;;;;;;;;;;4996772;28;20030;-62
2023/10/24 02:43:25;;;;;;;44.55;24.75;;;;;;;;;;4996665;28;20033;-62
2023/10/24 02:45:50;;;;;;;45.35;24.75;;;;;;;;;;4996656;28;20030;-62
2023/10/24 02:48:15;;;;;;;41.63;23.13;;;;;;;;;;4996387;28;20033;-63
2023/10/24 02:50:42;;;;;;;43.75;22.83;;;;;;;;;;4996488;28;20033;-62
2023/10/24 02:53:08;;;;;;;43.15;22.88;;;;;;;;;;4996153;28;20030;-63
2023/10/24 02:55:34;;;;;;;40.38;21.85;;;;;;;;;;4996485;28;20030;-63
2023/10/24 02:57:59;;;;;;;35.72;21.52;;;;;;;;;;4996276;28;20513;-63
2023/10/24 03:00:25;;;;;;;48.70;26.85;;;;;;;;;;4996263;28;20434;-62
2023/10/24 03:02:50;;;;;;;35.90;19.85;;;;;;;;;;4996193;28;20475;-63
2023/10/24 03:05:16;;;;;;;38.97;21.52;;;;;;;;;;4995936;28;20030;-62
2023/10/24 03:07:41;;;;;;;34.13;19.92;;;;;;;;;;4995846;28;20035;-63
2023/10/24 03:10:07;;;;;;;32.80;18.90;;;;;;;;;;4996171;28;20031;-63
2023/10/24 03:12:33;;;;;;;37.28;20.90;;;;;;;;;;4996131;28;20062;-62
2023/10/24 03:14:58;;;;;;;30.15;17.75;;;;;;;;;;4996074;28;20065;-63
2023/10/24 03:17:24;;;;;;;40.92;19.33;;;;;;;;;;4995953;28;20066;-63
2023/10/24 03:19:49;;;;;;;29.25;17.35;;;;;;;;;;4996081;28;20027;-63
2023/10/24 03:22:15;;;;;;;33.58;18.42;;;;;;;;;;4995305;28;20037;-63
2023/10/24 03:24:41;;;;;;;32.55;18.02;;;;;;;;;;4995844;28;20026;-63
2023/10/24 03:27:11;;;;;;;30.98;18.67;;;;;;;;;;4995682;28;20034;-63
2023/10/24 03:29:37;;;;;;;36.05;17.85;;;;;;;;;;4995499;28;20050;-63
2023/10/24 03:32:03;;;;;;;29.92;18.02;;;;;;;;;;4995700;28;20104;-63
2023/10/24 03:34:29;;;;;;;35.15;19.98;;;;;;;;;;4995626;28;20102;-64
2023/10/24 03:36:54;;;;;;;41.33;18.98;;;;;;;;;;4995433;28;20487;-63
2023/10/24 03:39:20;;;;;;;31.92;18.65;;;;;;;;;;4995393;28;20022;-62
2023/10/24 03:41:45;;;;;;;32.30;16.40;;;;;;;;;;4995425;28;20035;-63
2023/10/24 03:44:10;;;;;;;31.58;18.52;;;;;;;;;;4994227;28;20379;-62
2023/10/24 03:46:36;;;;;;;33.83;19.10;;;;;;;;;;4995446;28;20049;-63
2023/10/24 03:49:02;;;;;;;32.20;18.45;;;;;;;;;;4995281;28;20027;-63
2023/10/24 03:51:27;;;;;;;33.45;19.30;;;;;;;;;;4995117;28;20047;-65
2023/10/24 03:53:53;;;;;;;32.38;18.77;;;;;;;;;;4995308;28;20023;-63
2023/10/24 03:56:18;;;;;;;38.15;18.35;;;;;;;;;;4992679;28;20038;-62
2023/10/24 03:58:44;;;;;;;32.03;19.90;;;;;;;;;;4975711;28;20373;-62
2023/10/24 04:01:09;;;;;;;32.85;17.20;;;;;;;;;;4975688;28;20049;-63
2023/10/24 04:03:35;;;;;;;33.00;19.77;;;;;;;;;;4975655;28;20356;-61
2023/10/24 04:06:00;;;;;;;35.58;22.15;;;;;;;;;;4975270;28;20392;-62
2023/10/24 04:08:26;;;;;;;34.45;18.88;;;;;;;;;;4975657;28;20051;-62
2023/10/24 04:10:51;;;;;;;37.97;22.67;;;;;;;;;;4975450;28;20027;-61
2023/10/24 04:13:16;;;;;;;40.53;25.33;;;;;;;;;;4975523;28;20089;-63
2023/10/24 04:15:42;;;;;;;34.28;19.38;;;;;;;;;;4975504;28;20023;-63
2023/10/24 04:18:07;;;;;;;31.25;17.33;;;;;;;;;;4975340;28;20019;-62
2023/10/24 04:20:33;;;;;;;36.38;20.60;;;;;;;;;;4975205;28;20054;-62
2023/10/24 04:23:05;;;;;;;35.80;21.00;;;;;;;;;;4975299;28;20026;-62
2023/10/24 04:25:30;;;;;;;36.50;20.27;;;;;;;;;;4975163;28;20476;-61
2023/10/24 04:27:57;;;;;;;31.05;17.38;;;;;;;;;;4974583;28;20102;-61
2023/10/24 04:30:23;;;;;;;26.75;16.80;;;;;;;;;;4974993;28;20031;-62
2023/10/24 04:32:48;;;;;;;30.80;18.90;;;;;;;;;;4975151;28;20089;-62
2023/10/24 04:35:13;;;;;;;31.35;19.05;;;;;;;;;;4974868;28;20018;-62
2023/10/24 04:37:39;;;;;;;30.73;18.13;;;;;;;;;;4975071;28;20472;-63
2023/10/24 04:40:07;;;;;;;28.17;15.63;;;;;;;;;;4974623;28;20475;-62
2023/10/24 04:42:32;;;;;;;26.80;15.77;;;;;;;;;;4974889;28;20098;-62
2023/10/24 04:44:58;;;;;;;29.85;15.88;;;;;;;;;;4974834;28;20105;-62
2023/10/24 04:47:24;;;;;;;22.33;14.55;;;;;;;;;;4974586;28;20062;-62
2023/10/24 04:49:50;;;;;;;26.42;17.08;;;;;;;;;;4974633;28;20078;-62
2023/10/24 04:52:15;;;;;;;32.40;18.95;;;;;;;;;;4974721;28;20484;-63
2023/10/24 04:54:40;;;;;;;32.30;17.00;;;;;;;;;;4974765;28;20129;-62
2023/10/24 04:57:06;;;;;;;28.25;16.80;;;;;;;;;;4974717;28;20102;-62
2023/10/24 04:59:31;;;;;;;27.17;17.02;;;;;;;;;;4974095;28;20031;-64
2023/10/24 05:01:57;;;;;;;30.75;17.13;;;;;;;;;;4974380;28;20030;-63
2023/10/24 05:04:22;;;;;;;29.98;17.60;;;;;;;;;;4974475;28;20078;-63
2023/10/24 05:06:48;;;;;;;27.55;15.00;;;;;;;;;;4974336;28;20088;-64
2023/10/24 05:09:16;;;;;;;27.63;17.63;;;;;;;;;;4974537;28;20046;-64
2023/10/24 05:11:41;;;;;;;30.00;17.20;;;;;;;;;;4974332;28;20046;-62
2023/10/24 05:14:07;;;;;;;29.42;16.98;;;;;;;;;;4974503;28;20027;-63
2023/10/24 05:16:32;;;;;;;36.00;20.17;;;;;;;;;;4974267;28;20053;-64
2023/10/24 05:18:58;;;;;;;35.63;19.67;;;;;;;;;;4974177;28;20392;-63
2023/10/24 05:21:23;;;;;;;37.70;19.15;;;;;;;;;;4974327;28;20099;-63
2023/10/24 05:23:49;;;;;;;35.42;18.65;;;;;;;;;;4974233;28;20103;-63
2023/10/24 05:26:14;;;;;;;37.20;20.70;;;;;;;;;;4973861;28;20349;-62
2023/10/24 05:28:39;;;;;;;41.95;21.83;;;;;;;;;;4980318;28;20065;-63
2023/10/24 05:31:07;;;;;;;36.22;20.23;;;;;;;;;;4993583;28;20492;-63
2023/10/24 05:33:34;;;;;;;37.40;20.90;;;;;;;;;;4993221;28;20372;-62
2023/10/24 05:35:59;;;;;;;38.15;20.65;;;;;;;;;;4993444;28;20031;-62
2023/10/24 05:38:25;;;;;;;38.95;22.15;;;;;;;;;;4993507;28;20476;-63
2023/10/24 05:40:50;;;;;;;41.20;21.77;;;;;;;;;;4993493;28;20058;-63
2023/10/24 05:43:16;;;;;;;40.05;19.48;;;;;;;;;;4993360;28;20158;-64
2023/10/24 05:45:41;;;;;;;46.88;23.33;;;;;;;;;;4993553;28;20571;-63
2023/10/24 05:48:06;;;;;;;34.05;19.70;;;;;;;;;;4992769;28;20022;-63
2023/10/24 05:50:33;;;;;;;38.78;20.63;;;;;;;;;;4993324;28;20061;-62
2023/10/24 05:52:59;;;;;;;42.97;20.17;;;;;;;;;;4993326;28;20121;-63
2023/10/24 05:55:24;;;;;;;39.55;19.90;;;;;;;;;;4993133;28;20416;-63
2023/10/24 05:57:50;;;;;;;53.05;28.25;;;;;;;;;;4993137;28;20053;-63
2023/10/24 06:00:15;;;;;;;40.15;22.02;;;;;;;;;;4993128;28;20439;-65
2023/10/24 06:02:41;;;;;;;45.65;24.35;;;;;;;;;;4992961;28;20034;-63
2023/10/24 06:05:06;;;;;;;39.97;21.70;;;;;;;;;;4992994;28;20026;-62
2023/10/24 06:07:32;;;;;;;48.88;26.17;;;;;;;;;;4993151;28;20061;-63
2023/10/24 06:09:57;;;;;;;38.92;22.20;;;;;;;;;;4993064;28;20069;-62
2023/10/24 06:12:23;;;;;;;48.13;23.40;;;;;;;;;;4995178;28;20030;-62
2023/10/24 06:14:48;;;;;;;39.22;21.95;;;;;;;;;;4997127;28;20026;-62
2023/10/24 06:17:17;;;;;;;42.33;20.88;;;;;;;;;;4996675;28;20038;-63
2023/10/24 06:19:45;;;;;;;40.67;22.17;;;;;;;;;;4996863;28;20174;-63
2023/10/24 06:22:10;;;;;;;36.08;20.63;;;;;;;;;;4996959;28;20031;-62
2023/10/24 06:24:36;;;;;;;45.35;22.58;;;;;;;;;;4996929;28;20076;-62
2023/10/24 06:27:01;;;;;;;38.95;21.40;;;;;;;;;;4996685;28;20117;-62
2023/10/24 06:29:29;;;;;;;45.05;24.65;;;;;;;;;;4996485;28;20054;-63
2023/10/24 06:31:56;;;;;;;48.95;23.92;;;;;;;;;;4981874;28;20122;-63
2023/10/24 06:34:22;;;;;;;34.35;19.02;;;;;;;;;;4982595;28;20018;-61
2023/10/24 06:36:47;;;;;;;40.70;22.65;;;;;;;;;;4986295;28;20034;-62
2023/10/24 06:39:13;;;;;;;42.42;21.45;;;;;;;;;;4976735;28;20034;-61
2023/10/24 06:41:38;;;;;;;45.05;24.15;;;;;;;;;;4976477;28;20030;-62
2023/10/24 06:44:04;;;;;;;44.17;23.60;;;;;;;;;;4976734;28;20027;-65
2023/10/24 06:46:30;;;;;;;39.95;21.90;;;;;;;;;;4976582;28;20034;-62
2023/10/24 06:48:55;;;;;;;42.75;21.98;;;;;;;;;;4976195;28;20030;-63
2023/10/24 06:51:22;;;;;;;40.13;21.08;;;;;;;;;;4976595;28;20038;-63
2023/10/24 06:53:47;;;;;;;35.50;20.02;;;;;;;;;;4976558;28;20531;-63
2023/10/24 06:56:13;;;;;;;38.10;23.27;;;;;;;;;;4976757;28;20043;-64
2023/10/24 06:58:40;;;;;;;44.28;23.48;;;;;;;;;;4976528;28;20448;-62
2023/10/24 07:01:05;;;;;;;47.47;26.05;;;;;;;;;;4976285;28;20054;-63
2023/10/24 07:03:31;;;;;;;41.50;22.75;;;;;;;;;;4976527;28;20065;-62
2023/10/24 07:05:56;;;;;;;46.05;26.27;;;;;;;;;;4977468;28;20025;-63
2023/10/24 07:08:22;;;;;;;46.60;25.63;;;;;;;;;;4995753;28;20101;-63
2023/10/24 07:10:48;;;;;;;37.35;21.55;;;;;;;;;;4995682;28;20034;-63
2023/10/24 07:13:14;;;;;;;39.88;21.70;;;;;;;;;;4995777;28;20069;-63
2023/10/24 07:15:39;;;;;;;41.95;22.55;;;;;;;;;;4995575;28;20022;-63
2023/10/24 07:18:06;;;;;;;36.75;18.67;;;;;;;;;;4995383;28;20022;-62
2023/10/24 07:20:38;;;;;;;36.20;22.08;;;;;;;;;;4995334;28;20027;-62
2023/10/24 07:23:04;;;;;;;37.58;23.60;;;;;;;;;;4995311;28;20034;-63
2023/10/24 07:25:30;;;;;;;39.78;22.75;;;;;;;;;;4995373;28;20030;-62
2023/10/24 07:27:57;;;;;;;27.88;16.08;;;;;;;;;;4980238;28;20053;-62
2023/10/24 07:30:23;;;;;;;34.15;21.08;;;;;;;;;;4975585;28;20027;-62
2023/10/24 07:32:49;;;;;;;41.47;21.58;;;;;;;;;;4975882;28;20029;-62
2023/10/24 07:35:15;;;;;;;33.15;19.45;;;;;;;;;;4975752;28;20026;-63
2023/10/24 07:37:40;;;;;;;33.70;18.92;;;;;;;;;;4975670;28;20447;-63
2023/10/24 07:40:06;;;;;;;30.25;19.15;;;;;;;;;;4975522;28;20019;-63
2023/10/24 07:42:32;;;;;;;35.40;19.27;;;;;;;;;;4975645;28;20476;-63
2023/10/24 07:44:57;;;;;;;29.70;17.30;;;;;;;;;;4975514;28;21009;-63
2023/10/24 07:47:23;;;;;;;29.75;17.40;;;;;;;;;;4975645;28;20026;-62
2023/10/24 07:49:50;;;;;;;32.55;17.75;;;;;;;;;;4975308;28;20142;-62
2023/10/24 07:52:15;;;;;;;25.00;17.30;;;;;;;;;;4975645;28;20031;-62
2023/10/24 07:54:40;;;;;;;38.60;23.90;;;;;;;;;;4975608;28;20432;-62
2023/10/24 07:57:06;;;;;;;28.75;16.30;;;;;;;;;;4975310;28;20026;-63
2023/10/24 07:59:32;;;;;;;28.83;18.52;;;;;;;;;;4975420;28;20041;-63
2023/10/24 08:01:57;;;;;;;27.00;15.82;;;;;;;;;;4975360;28;20037;-63
2023/10/24 08:04:23;;;;;;;24.90;16.23;;;;;;;;;;4975612;28;20037;-63
2023/10/24 08:06:48;;;;;;;27.55;16.10;;;;;;;;;;4975261;28;20042;-63
2023/10/24 08:09:13;;;;;;;29.83;16.83;;;;;;;;;;4974963;28;20416;-63
2023/10/24 08:11:40;;;;;;;24.98;16.70;;;;;;;;;;4975056;28;20456;-63
2023/10/24 08:14:05;;;;;;;22.33;15.32;;;;;;;;;;4975151;28;20031;-63
2023/10/24 08:16:31;;;;;;;26.05;16.02;;;;;;;;;;4975153;28;20030;-63
2023/10/24 08:18:57;;;;;;;21.80;15.10;;;;;;;;;;4975220;28;20035;-63
2023/10/24 08:21:23;;;;;;;24.95;14.38;;;;;;;;;;4975037;28;20038;-63
2023/10/24 08:23:48;;;;;;;25.83;15.25;;;;;;;;;;4975168;28;20061;-62
2023/10/24 08:26:15;;;;;;;21.60;14.20;;;;;;;;;;4974500;28;20349;-63
2023/10/24 08:28:41;;;;;;;22.77;13.95;;;;;;;;;;4974419;28;20085;-63
2023/10/24 08:31:06;;;;;;;22.55;12.80;;;;;;;;;;4975034;28;20086;-63
2023/10/24 08:33:33;;;;;;;24.90;15.00;;;;;;;;;;4973993;28;20023;-63
2023/10/24 08:35:58;;;;;;;27.33;14.35;;;;;;;;;;4974526;28;20058;-62
2023/10/24 08:38:24;;;;;;;20.88;11.57;;;;;;;;;;4974835;28;20061;-63
2023/10/24 08:40:49;;;;;;;25.35;15.50;;;;;;;;;;4974449;28;20031;-63
2023/10/24 08:43:17;;;;;;;23.33;14.88;;;;;;;;;;4974661;28;20467;-62
2023/10/24 08:45:43;;;;;;;22.92;14.52;;;;;;;;;;4974351;28;20034;-63
2023/10/24 08:48:09;;;;;;;26.15;15.35;;;;;;;;;;4973089;28;20057;-63
2023/10/24 08:50:34;;;;;;;24.75;15.02;;;;;;;;;;4973271;28;20376;-63
2023/10/24 08:53:01;;;;;;;24.30;14.25;;;;;;;;;;4974575;28;20022;-62
2023/10/24 08:55:28;;;;;;;25.55;14.55;;;;;;;;;;4974184;28;20031;-63
2023/10/24 08:57:54;;;;;;;22.75;15.80;;;;;;;;;;4974267;28;20033;-62
2023/10/24 09:00:20;;;;;;;20.48;14.18;;;;;;;;;;4974359;28;20039;-63
2023/10/24 09:02:45;;;;;;;20.25;12.35;;;;;;;;;;4974322;28;20093;-63
2023/10/24 09:05:13;;;;;;;23.52;15.32;;;;;;;;;;4974377;28;20030;-63
2023/10/24 09:07:38;;;;;;;24.58;14.25;;;;;;;;;;4973912;28;20125;-64
2023/10/24 09:10:05;;;;;;;19.95;13.93;;;;;;;;;;4973866;28;20062;-64
2023/10/24 09:12:31;;;;;;;27.08;14.45;;;;;;;;;;4974281;28;20031;-63
2023/10/24 09:14:58;;;;;;;24.90;15.18;;;;;;;;;;4974262;28;20536;-64
2023/10/24 09:17:24;;;;;;;22.10;13.80;;;;;;;;;;4974018;28;20034;-64
2023/10/24 09:19:49;;;;;;;20.38;13.23;;;;;;;;;;4973836;28;20039;-63
2023/10/24 09:22:16;;;;;;;17.90;13.40;;;;;;;;;;4993530;28;20041;-62
2023/10/24 09:24:47;;;;;;;21.75;12.55;;;;;;;;;;4993161;28;20041;-63
2023/10/24 09:27:23;;;;;;;23.83;12.43;;;;;;;;;;4984729;28;20338;-63
2023/10/24 09:29:50;;;;;;;18.65;11.18;;;;;;;;;;4973331;28;20547;-63
2023/10/24 09:32:16;;;;;;;20.70;12.52;;;;;;;;;;4973787;28;20115;-63
2023/10/24 09:34:45;;;;;;;19.50;12.75;;;;;;;;;;4973766;28;20109;-63
2023/10/24 09:37:13;;;;;;;21.25;13.27;;;;;;;;;;4973711;28;20023;-62
2023/10/24 09:39:57;;;;;;;23.48;12.90;;;;;;;;;;4973533;28;20030;-63
2023/10/24 09:42:31;;;;;;;21.73;14.02;;;;;;;;;;4954675;28;20035;-62
2023/10/24 09:44:58;;;;;;;22.77;13.70;;;;;;;;;;4954303;28;20039;-63
2023/10/24 09:47:24;;;;;;;23.98;14.32;;;;;;;;;;4969023;28;20388;-63
2023/10/24 09:49:54;;;;;;;19.13;13.43;;;;;;;;;;4954360;28;20030;-63
2023/10/24 09:52:22;;;;;;;23.50;12.53;;;;;;;;;;4954624;28;20042;-63
2023/10/24 09:54:49;;;;;;;24.42;14.98;;;;;;;;;;4954246;28;20035;-64
2023/10/24 09:57:19;;;;;;;20.45;12.27;;;;;;;;;;4954351;28;20479;-63
2023/10/24 09:59:49;;;;;;;20.57;11.13;;;;;;;;;;4954338;28;20035;-62
2023/10/24 10:02:16;;;;;;;16.75;10.93;;;;;;;;;;4954272;28;20285;-63
2023/10/24 10:04:42;;;;;;;18.25;10.65;;;;;;;;;;4954429;28;20028;-63
2023/10/24 10:07:10;;;;;;;22.10;12.07;;;;;;;;;;4954133;28;20054;-62
2023/10/24 10:09:39;;;;;;;20.17;12.15;;;;;;;;;;4968029;28;20031;-63
2023/10/24 10:12:07;;;;;;;17.35;12.07;;;;;;;;;;4973254;28;20038;-63
2023/10/24 10:14:57;;;;;;;19.92;13.15;;;;;;;;;;4973459;28;20082;-63
2023/10/24 10:17:38;;;;;;;21.90;12.35;;;;;;;;;;4973393;28;20022;-63
2023/10/24 10:20:30;;;;;;;21.88;11.18;;;;;;;;;;4973422;28;20039;-63
2023/10/24 10:23:15;;;;;;;19.05;11.35;;;;;;;;;;4913648;29;20036;-63
2023/10/24 10:26:08;;;;;;;19.08;12.10;;;;;;;;;;4913319;29;20094;-63
2023/10/24 10:29:08;;;;;;;20.15;13.05;;;;;;;;;;4913407;29;20078;-63
2023/10/24 10:31:54;;;;;;;15.57;10.23;;;;;;;;;;4909993;29;20422;-62
2023/10/24 10:34:31;;;;;;;19.83;11.68;;;;;;;;;;4913700;29;20032;-63
2023/10/24 10:36:57;;;;;;;15.95;10.25;;;;;;;;;;4911877;29;20075;-63
2023/10/24 10:39:22;;;;;;;13.07;8.93;;;;;;;;;;4904228;29;20060;-63
2023/10/24 10:41:47;;;;;;;18.38;9.65;;;;;;;;;;4904771;29;20054;-62
2023/10/24 10:44:35;;;;;;;17.88;11.10;;;;;;;;;;4903071;29;20029;-63
2023/10/24 10:47:01;;;;;;;15.15;8.43;;;;;;;;;;4905837;29;20401;-63
2023/10/24 10:49:38;;;;;;;18.35;10.85;;;;;;;;;;4904355;29;20024;-62
2023/10/24 10:52:17;;;;;;;16.98;8.93;;;;;;;;;;4903937;29;20025;-63
2023/10/24 10:54:58;;;;;;;12.93;6.75;;;;;;;;;;4907961;29;20029;-63
2023/10/24 10:57:32;;;;;;;14.93;7.88;;;;;;;;;;4915133;29;20504;-62
2023/10/24 11:00:08;;;;;;;16.08;9.15;;;;;;;;;;4952966;28;20499;-63
2023/10/24 11:02:42;;;;;;;17.25;8.68;;;;;;;;;;4976483;28;20031;-62
2023/10/24 11:05:36;;;;;;;14.93;9.30;;;;;;;;;;4976510;28;20110;-63
2023/10/24 11:08:04;;;;;;;16.73;8.05;;;;;;;;;;4973987;28;20408;-62
2023/10/24 11:10:52;;;;;;;18.98;8.75;;;;;;;;;;4957049;28;20074;-63
2023/10/24 11:13:43;;;;;;;17.98;9.38;;;;;;;;;;4955635;29;20027;-62
2023/10/24 11:16:14;;;;;;;16.73;9.13;;;;;;;;;;4951246;29;20515;-62
2023/10/24 11:18:40;;;;;;;19.38;9.15;;;;;;;;;;4956876;28;20031;-63
2023/10/24 11:21:13;;;;;;;15.90;9.80;;;;;;;;;;4956583;28;20074;-63
2023/10/24 11:23:42;;;;;;;19.88;11.05;;;;;;;;;;4956617;28;20478;-63
2023/10/24 11:26:08;;;;;;;18.83;9.88;;;;;;;;;;4956420;28;20062;-62
2023/10/24 11:28:33;;;;;;;15.02;8.93;;;;;;;;;;4975482;28;20039;-63
2023/10/24 11:31:18;;;;;;;16.55;8.63;;;;;;;;;;4976081;28;20054;-63
2023/10/24 11:33:44;;;;;;;17.65;8.13;;;;;;;;;;4975905;28;20023;-63
2023/10/24 11:36:10;;;;;;;15.82;9.43;;;;;;;;;;4975516;28;20152;-63
2023/10/24 11:38:35;;;;;;;15.93;7.63;;;;;;;;;;4975775;28;20035;-63
2023/10/24 11:41:01;;;;;;;15.18;9.30;;;;;;;;;;4975748;28;20031;-63
2023/10/24 11:43:28;;;;;;;18.73;10.30;;;;;;;;;;4975617;28;20027;-62
2023/10/24 11:45:55;;;;;;;11.48;6.60;;;;;;;;;;4975491;28;20038;-63
2023/10/24 11:48:20;;;;;;;16.30;9.40;;;;;;;;;;4975552;28;20031;-63
2023/10/24 11:50:46;;;;;;;17.02;9.88;;;;;;;;;;4975469;28;20376;-63
2023/10/24 11:53:19;;;;;;;20.20;10.40;;;;;;;;;;4975686;28;20034;-62
2023/10/24 11:55:44;;;;;;;16.50;9.68;;;;;;;;;;4975458;28;20046;-63
2023/10/24 11:58:11;;;;;;;17.45;9.55;;;;;;;;;;4974210;28;20383;-63
2023/10/24 12:00:40;;;;;;;16.30;10.07;;;;;;;;;;4975481;28;20019;-63
2023/10/24 12:03:06;;;;;;;14.15;9.27;;;;;;;;;;4975301;28;20042;-63
2023/10/24 12:05:32;;;;;;;26.02;11.02;;;;;;;;;;4975050;28;20045;-63
2023/10/24 12:07:59;;;;;;;13.68;8.90;;;;;;;;;;4974318;28;20035;-63
2023/10/24 12:10:26;;;;;;;20.17;10.00;;;;;;;;;;4974848;28;20033;-63
2023/10/24 12:12:57;;;;;;;17.20;10.23;;;;;;;;;;4975371;28;20030;-63
2023/10/24 12:15:24;;;;;;;15.65;7.65;;;;;;;;;;4975162;28;20451;-63
2023/10/24 12:17:50;;;;;;;19.20;9.27;;;;;;;;;;4974996;28;20068;-62
2023/10/24 12:20:16;;;;;;;13.13;8.52;;;;;;;;;;4974916;28;20022;-63
2023/10/24 12:22:46;;;;;;;16.25;8.82;;;;;;;;;;4975072;28;20030;-62
2023/10/24 12:25:16;;;;;;;17.10;9.70;;;;;;;;;;4974879;28;20499;-63
2023/10/24 12:27:41;;;;;;;19.75;9.88;;;;;;;;;;4962340;28;20055;-62
2023/10/24 12:30:07;;;;;;;22.40;12.18;;;;;;;;;;4973554;28;20546;-63
2023/10/24 12:32:33;;;;;;;20.73;10.55;;;;;;;;;;4974731;28;20031;-63
2023/10/24 12:34:58;;;;;;;24.90;11.88;;;;;;;;;;4974582;28;20027;-63
2023/10/24 12:37:24;;;;;;;17.85;10.65;;;;;;;;;;4974658;28;20030;-63
2023/10/24 12:39:51;;;;;;;17.95;11.20;;;;;;;;;;4974640;28;20064;-63
2023/10/24 12:42:17;;;;;;;17.42;9.77;;;;;;;;;;4974541;28;20027;-63
2023/10/24 12:44:42;;;;;;;19.55;11.05;;;;;;;;;;4974642;28;20384;-62
2023/10/24 12:47:08;;;;;;;17.88;10.07;;;;;;;;;;4974319;28;20035;-63
2023/10/24 12:49:34;;;;;;;17.20;10.18;;;;;;;;;;4974258;28;20092;-63
2023/10/24 12:51:59;;;;;;;14.70;9.80;;;;;;;;;;4974378;28;20181;-62
2023/10/24 12:54:25;;;;;;;21.77;12.13;;;;;;;;;;4974540;28;20027;-63
2023/10/24 12:56:50;;;;;;;21.00;11.30;;;;;;;;;;4974384;28;20062;-63
2023/10/24 12:59:15;;;;;;;15.95;8.88;;;;;;;;;;4974447;28;20106;-63
2023/10/24 13:01:41;;;;;;;20.95;10.65;;;;;;;;;;4974097;28;20031;-63
2023/10/24 13:04:06;;;;;;;20.08;11.32;;;;;;;;;;4974370;28;20030;-63
2023/10/24 13:06:33;;;;;;;25.38;12.02;;;;;;;;;;4973916;28;20023;-64
2023/10/24 13:08:58;;;;;;;19.40;10.15;;;;;;;;;;4974202;28;20122;-64
2023/10/24 13:11:24;;;;;;;16.70;9.55;;;;;;;;;;4974224;28;20062;-64
2023/10/24 13:13:50;;;;;;;21.38;12.70;;;;;;;;;;4974125;28;20050;-64
2023/10/24 13:16:17;;;;;;;21.08;11.65;;;;;;;;;;4973800;28;20268;-64
2023/10/24 13:18:42;;;;;;;19.23;11.45;;;;;;;;;;4974153;28;20033;-64
2023/10/24 13:21:07;;;;;;;21.65;12.02;;;;;;;;;;4973657;28;20026;-64
2023/10/24 13:23:33;;;;;;;25.33;12.48;;;;;;;;;;4973825;28;20031;-63
2023/10/24 13:25:58;;;;;;;21.83;12.55;;;;;;;;;;4973793;28;20029;-63
2023/10/24 13:28:25;;;;;;;17.98;11.30;;;;;;;;;;4959970;28;20043;-61
2023/10/24 13:30:50;;;;;;;27.48;13.05;;;;;;;;;;4973727;28;20527;-62
2023/10/24 13:33:16;;;;;;;18.83;11.50;;;;;;;;;;4973834;28;20031;-62
2023/10/24 13:35:41;;;;;;;24.42;14.52;;;;;;;;;;4973459;28;20031;-62
2023/10/24 13:38:07;;;;;;;23.27;13.73;;;;;;;;;;4973580;28;20030;-62
2023/10/24 13:40:32;;;;;;;22.40;11.05;;;;;;;;;;4972275;28;20073;-63
2023/10/24 13:42:57;;;;;;;19.92;10.80;;;;;;;;;;4973780;28;20113;-63
2023/10/24 13:45:25;;;;;;;24.42;13.30;;;;;;;;;;4973588;28;20021;-62
2023/10/24 13:47:50;;;;;;;26.70;13.52;;;;;;;;;;4972287;28;20026;-62
2023/10/24 13:50:15;;;;;;;26.48;13.23;;;;;;;;;;4973575;28;20384;-62
2023/10/24 13:52:41;;;;;;;18.98;10.40;;;;;;;;;;4973484;28;20431;-63
2023/10/24 13:55:07;;;;;;;16.48;8.95;;;;;;;;;;4973538;28;20038;-62
2023/10/24 13:57:32;;;;;;;25.40;14.15;;;;;;;;;;4973441;28;20031;-62
2023/10/24 13:59:58;;;;;;;24.10;13.80;;;;;;;;;;4973246;28;20030;-62
2023/10/24 14:02:23;;;;;;;30.30;14.73;;;;;;;;;;4973616;28;20432;-63
2023/10/24 14:04:48;;;;;;;22.63;14.27;;;;;;;;;;4973482;28;20376;-63
2023/10/24 14:07:14;;;;;;;28.92;16.08;;;;;;;;;;4973471;28;20166;-62
2023/10/24 14:09:40;;;;;;;26.75;15.48;;;;;;;;;;4973483;28;20029;-63
2023/10/24 14:12:06;;;;;;;31.25;17.10;;;;;;;;;;4973388;28;20383;-62
2023/10/24 14:14:32;;;;;;;28.00;16.15;;;;;;;;;;4973204;28;20387;-62
2023/10/24 14:16:58;;;;;;;27.13;16.08;;;;;;;;;;4973612;28;20075;-63
2023/10/24 14:19:23;;;;;;;54.47;34.03;;;;;;;;;;4973457;28;20070;-63